sensor_id;sensor_type;location;lat;lon;timestamp;temperature;humidity
65470;DHT22;52067;50.710;14.492;2023-07-31T00:00:28;12.38;90.64
65470;DHT22;52067;50.710;14.492;2023-07-31T00:02:53;12.50;90.69
65470;DHT22;52067;50.710;14.492;2023-07-31T00:05:19;12.27;90.79
65470;DHT22;52067;50.710;14.492;2023-07-31T00:07:44;12.34;91.11
65470;DHT22;52067;50.710;14.492;2023-07-31T00:10:09;12.27;90.60
65470;DHT22;52067;50.710;14.492;2023-07-31T00:12:35;12.12;91.01
65470;DHT22;52067;50.710;14.492;2023-07-31T00:15:00;12.12;90.98
65470;DHT22;52067;50.710;14.492;2023-07-31T00:17:25;11.98;91.11
65470;DHT22;52067;50.710;14.492;2023-07-31T00:19:51;11.95;91.10
65470;DHT22;52067;50.710;14.492;2023-07-31T00:22:16;11.99;91.14
65470;DHT22;52067;50.710;14.492;2023-07-31T00:24:41;11.89;91.25
65470;DHT22;52067;50.710;14.492;2023-07-31T00:27:06;11.82;91.13
65470;DHT22;52067;50.710;14.492;2023-07-31T00:29:32;11.88;91.35
65470;DHT22;52067;50.710;14.492;2023-07-31T00:31:57;11.85;91.50
65470;DHT22;52067;50.710;14.492;2023-07-31T00:34:22;11.93;91.36
65470;DHT22;52067;50.710;14.492;2023-07-31T00:36:48;11.95;91.34
65470;DHT22;52067;50.710;14.492;2023-07-31T00:39:13;12.00;91.20
65470;DHT22;52067;50.710;14.492;2023-07-31T00:41:38;11.90;91.33
65470;DHT22;52067;50.710;14.492;2023-07-31T00:44:04;12.07;91.12
65470;DHT22;52067;50.710;14.492;2023-07-31T00:46:29;12.03;90.75
65470;DHT22;52067;50.710;14.492;2023-07-31T00:48:54;12.02;90.72
65470;DHT22;52067;50.710;14.492;2023-07-31T00:51:19;12.07;90.77
65470;DHT22;52067;50.710;14.492;2023-07-31T00:53:45;12.15;90.67
65470;DHT22;52067;50.710;14.492;2023-07-31T00:56:11;12.25;90.32
65470;DHT22;52067;50.710;14.492;2023-07-31T00:58:37;12.15;90.16
65470;DHT22;52067;50.710;14.492;2023-07-31T01:01:02;12.16;90.03
65470;DHT22;52067;50.710;14.492;2023-07-31T01:03:27;11.81;90.37
65470;DHT22;52067;50.710;14.492;2023-07-31T01:05:56;11.96;90.45
65470;DHT22;52067;50.710;14.492;2023-07-31T01:08:29;11.82;90.19
65470;DHT22;52067;50.710;14.492;2023-07-31T01:11:14;11.55;90.76
65470;DHT22;52067;50.710;14.492;2023-07-31T01:13:40;11.45;91.20
65470;DHT22;52067;50.710;14.492;2023-07-31T01:16:06;11.55;91.17
65470;DHT22;52067;50.710;14.492;2023-07-31T01:18:31;11.52;91.25
65470;DHT22;52067;50.710;14.492;2023-07-31T01:21:01;11.44;91.35
65470;DHT22;52067;50.710;14.492;2023-07-31T01:26:12;11.69;91.14
65470;DHT22;52067;50.710;14.492;2023-07-31T01:28:55;11.34;91.25
65470;DHT22;52067;50.710;14.492;2023-07-31T01:31:23;11.45;91.34
65470;DHT22;52067;50.710;14.492;2023-07-31T01:33:49;11.58;91.05
65470;DHT22;52067;50.710;14.492;2023-07-31T01:36:15;11.35;90.85
65470;DHT22;52067;50.710;14.492;2023-07-31T01:38:40;11.27;91.29
65470;DHT22;52067;50.710;14.492;2023-07-31T01:41:05;11.28;91.20
65470;DHT22;52067;50.710;14.492;2023-07-31T01:43:31;11.27;91.21
65470;DHT22;52067;50.710;14.492;2023-07-31T01:45:56;11.37;91.21
65470;DHT22;52067;50.710;14.492;2023-07-31T01:48:21;11.34;90.96
65470;DHT22;52067;50.710;14.492;2023-07-31T01:50:46;11.32;91.11
65470;DHT22;52067;50.710;14.492;2023-07-31T01:53:12;11.20;91.26
65470;DHT22;52067;50.710;14.492;2023-07-31T01:55:38;11.34;91.08
65470;DHT22;52067;50.710;14.492;2023-07-31T01:58:03;11.32;91.29
65470;DHT22;52067;50.710;14.492;2023-07-31T02:00:29;11.52;90.96
65470;DHT22;52067;50.710;14.492;2023-07-31T02:02:54;11.40;90.83
65470;DHT22;52067;50.710;14.492;2023-07-31T02:05:19;11.54;90.96
65470;DHT22;52067;50.710;14.492;2023-07-31T02:07:44;11.45;90.77
65470;DHT22;52067;50.710;14.492;2023-07-31T02:10:10;11.48;91.13
65470;DHT22;52067;50.710;14.492;2023-07-31T02:12:35;11.52;90.89
65470;DHT22;52067;50.710;14.492;2023-07-31T02:15:00;11.54;90.63
65470;DHT22;52067;50.710;14.492;2023-07-31T02:17:26;11.58;90.41
65470;DHT22;52067;50.710;14.492;2023-07-31T02:19:51;11.59;90.10
65470;DHT22;52067;50.710;14.492;2023-07-31T02:22:16;11.41;90.86
65470;DHT22;52067;50.710;14.492;2023-07-31T02:24:42;11.59;90.44
65470;DHT22;52067;50.710;14.492;2023-07-31T02:27:07;11.62;90.01
65470;DHT22;52067;50.710;14.492;2023-07-31T02:29:32;11.65;89.76
65470;DHT22;52067;50.710;14.492;2023-07-31T02:31:57;11.57;89.91
65470;DHT22;52067;50.710;14.492;2023-07-31T02:34:23;11.47;90.42
65470;DHT22;52067;50.710;14.492;2023-07-31T02:36:48;11.38;90.56
65470;DHT22;52067;50.710;14.492;2023-07-31T02:39:13;11.28;90.78
65470;DHT22;52067;50.710;14.492;2023-07-31T02:41:38;11.32;90.96
65470;DHT22;52067;50.710;14.492;2023-07-31T02:44:04;11.30;90.60
65470;DHT22;52067;50.710;14.492;2023-07-31T02:46:29;11.06;91.07
65470;DHT22;52067;50.710;14.492;2023-07-31T02:48:54;11.14;91.06
65470;DHT22;52067;50.710;14.492;2023-07-31T02:51:19;11.04;91.02
65470;DHT22;52067;50.710;14.492;2023-07-31T02:53:46;11.19;91.07
65470;DHT22;52067;50.710;14.492;2023-07-31T02:56:12;10.93;91.15
65470;DHT22;52067;50.710;14.492;2023-07-31T02:58:38;11.04;91.35
65470;DHT22;52067;50.710;14.492;2023-07-31T03:01:03;11.14;90.95
65470;DHT22;52067;50.710;14.492;2023-07-31T03:03:28;11.01;91.15
65470;DHT22;52067;50.710;14.492;2023-07-31T03:05:53;11.19;90.96
65470;DHT22;52067;50.710;14.492;2023-07-31T03:08:19;10.66;91.40
65470;DHT22;52067;50.710;14.492;2023-07-31T03:10:44;10.92;91.60
65470;DHT22;52067;50.710;14.492;2023-07-31T03:13:09;11.04;91.24
65470;DHT22;52067;50.710;14.492;2023-07-31T03:15:35;10.77;91.32
65470;DHT22;52067;50.710;14.492;2023-07-31T03:18:00;11.09;91.29
65470;DHT22;52067;50.710;14.492;2023-07-31T03:20:25;11.00;91.05
65470;DHT22;52067;50.710;14.492;2023-07-31T03:22:50;10.92;91.28
65470;DHT22;52067;50.710;14.492;2023-07-31T03:25:16;10.95;91.10
65470;DHT22;52067;50.710;14.492;2023-07-31T03:27:41;11.20;90.97
65470;DHT22;52067;50.710;14.492;2023-07-31T03:30:06;10.80;91.47
65470;DHT22;52067;50.710;14.492;2023-07-31T03:32:32;11.19;91.61
65470;DHT22;52067;50.710;14.492;2023-07-31T03:34:57;11.41;91.25
65470;DHT22;52067;50.710;14.492;2023-07-31T03:37:22;11.44;90.84
65470;DHT22;52067;50.710;14.492;2023-07-31T03:39:48;11.59;90.75
65470;DHT22;52067;50.710;14.492;2023-07-31T03:42:13;11.75;90.37
65470;DHT22;52067;50.710;14.492;2023-07-31T03:44:38;11.79;90.17
65470;DHT22;52067;50.710;14.492;2023-07-31T03:47:04;11.89;89.90
65470;DHT22;52067;50.710;14.492;2023-07-31T03:49:29;11.98;89.46
65470;DHT22;52067;50.710;14.492;2023-07-31T03:51:54;11.90;89.40
65470;DHT22;52067;50.710;14.492;2023-07-31T03:54:19;11.50;90.26
65470;DHT22;52067;50.710;14.492;2023-07-31T03:56:45;11.48;90.62
65470;DHT22;52067;50.710;14.492;2023-07-31T03:59:10;11.65;90.73
65470;DHT22;52067;50.710;14.492;2023-07-31T04:01:35;11.79;90.34
65470;DHT22;52067;50.710;14.492;2023-07-31T04:04:00;11.77;90.62
65470;DHT22;52067;50.710;14.492;2023-07-31T04:06:26;11.92;90.59
65470;DHT22;52067;50.710;14.492;2023-07-31T04:08:51;12.03;90.21
65470;DHT22;52067;50.710;14.492;2023-07-31T04:11:16;12.17;89.89
65470;DHT22;52067;50.710;14.492;2023-07-31T04:13:42;11.95;90.39
65470;DHT22;52067;50.710;14.492;2023-07-31T04:16:07;12.02;90.90
65470;DHT22;52067;50.710;14.492;2023-07-31T04:18:32;12.27;90.45
65470;DHT22;52067;50.710;14.492;2023-07-31T04:20:58;12.36;89.72
65470;DHT22;52067;50.710;14.492;2023-07-31T04:23:24;12.48;89.63
65470;DHT22;52067;50.710;14.492;2023-07-31T04:25:49;12.53;89.48
65470;DHT22;52067;50.710;14.492;2023-07-31T04:28:14;12.26;89.97
65470;DHT22;52067;50.710;14.492;2023-07-31T04:30:39;11.93;90.70
65470;DHT22;52067;50.710;14.492;2023-07-31T04:33:05;11.89;91.19
65470;DHT22;52067;50.710;14.492;2023-07-31T04:35:30;12.15;91.23
65470;DHT22;52067;50.710;14.492;2023-07-31T04:37:55;12.44;90.85
65470;DHT22;52067;50.710;14.492;2023-07-31T04:40:21;12.64;90.45
65470;DHT22;52067;50.710;14.492;2023-07-31T04:42:46;12.47;90.38
65470;DHT22;52067;50.710;14.492;2023-07-31T04:45:11;12.67;90.66
65470;DHT22;52067;50.710;14.492;2023-07-31T04:47:37;12.58;90.27
65470;DHT22;52067;50.710;14.492;2023-07-31T04:50:02;12.80;90.35
65470;DHT22;52067;50.710;14.492;2023-07-31T04:52:27;12.83;90.27
65470;DHT22;52067;50.710;14.492;2023-07-31T04:54:53;12.71;90.55
65470;DHT22;52067;50.710;14.492;2023-07-31T04:57:18;12.94;90.42
65470;DHT22;52067;50.710;14.492;2023-07-31T04:59:43;12.95;90.49
65470;DHT22;52067;50.710;14.492;2023-07-31T05:02:08;13.23;90.62
65470;DHT22;52067;50.710;14.492;2023-07-31T05:04:34;13.36;90.00
65470;DHT22;52067;50.710;14.492;2023-07-31T05:06:59;13.18;90.41
65470;DHT22;52067;50.710;14.492;2023-07-31T05:09:24;13.52;90.02
65470;DHT22;52067;50.710;14.492;2023-07-31T05:11:50;13.56;89.69
65470;DHT22;52067;50.710;14.492;2023-07-31T05:14:15;13.36;90.02
65470;DHT22;52067;50.710;14.492;2023-07-31T05:16:41;13.63;89.68
65470;DHT22;52067;50.710;14.492;2023-07-31T05:19:06;13.70;89.63
65470;DHT22;52067;50.710;14.492;2023-07-31T05:21:31;13.71;89.25
65470;DHT22;52067;50.710;14.492;2023-07-31T05:23:56;13.69;89.43
65470;DHT22;52067;50.710;14.492;2023-07-31T05:26:22;13.67;89.44
65470;DHT22;52067;50.710;14.492;2023-07-31T05:28:47;13.80;89.36
65470;DHT22;52067;50.710;14.492;2023-07-31T05:31:12;13.36;90.76
65470;DHT22;52067;50.710;14.492;2023-07-31T05:33:38;13.44;90.80
65470;DHT22;52067;50.710;14.492;2023-07-31T05:36:03;13.42;90.79
65470;DHT22;52067;50.710;14.492;2023-07-31T05:38:28;13.66;90.92
65470;DHT22;52067;50.710;14.492;2023-07-31T05:40:54;13.83;90.49
65470;DHT22;52067;50.710;14.492;2023-07-31T05:43:20;14.01;89.60
65470;DHT22;52067;50.710;14.492;2023-07-31T05:45:45;13.97;89.14
65470;DHT22;52067;50.710;14.492;2023-07-31T05:48:10;13.95;89.42
65470;DHT22;52067;50.710;14.492;2023-07-31T05:50:35;14.11;88.86
65470;DHT22;52067;50.710;14.492;2023-07-31T05:53:04;14.04;88.71
65470;DHT22;52067;50.710;14.492;2023-07-31T05:55:29;14.04;88.74
65470;DHT22;52067;50.710;14.492;2023-07-31T05:57:54;13.70;89.73
65470;DHT22;52067;50.710;14.492;2023-07-31T06:00:20;13.80;89.79
65470;DHT22;52067;50.710;14.492;2023-07-31T06:02:46;14.02;89.30
65470;DHT22;52067;50.710;14.492;2023-07-31T06:05:12;13.87;89.28
65470;DHT22;52067;50.710;14.492;2023-07-31T06:07:37;13.81;90.09
65470;DHT22;52067;50.710;14.492;2023-07-31T06:10:02;13.97;90.23
65470;DHT22;52067;50.710;14.492;2023-07-31T06:12:33;13.67;90.43
65470;DHT22;52067;50.710;14.492;2023-07-31T06:14:58;13.73;90.97
65470;DHT22;52067;50.710;14.492;2023-07-31T06:17:24;13.90;91.10
65470;DHT22;52067;50.710;14.492;2023-07-31T06:19:49;14.17;90.58
65470;DHT22;52067;50.710;14.492;2023-07-31T06:22:15;13.87;90.79
65470;DHT22;52067;50.710;14.492;2023-07-31T06:24:40;14.02;90.81
65470;DHT22;52067;50.710;14.492;2023-07-31T06:27:05;14.25;90.42
65470;DHT22;52067;50.710;14.492;2023-07-31T06:29:31;14.11;90.69
65470;DHT22;52067;50.710;14.492;2023-07-31T06:31:56;14.04;90.19
65470;DHT22;52067;50.710;14.492;2023-07-31T06:34:21;14.11;90.20
65470;DHT22;52067;50.710;14.492;2023-07-31T06:36:47;14.35;90.36
65470;DHT22;52067;50.710;14.492;2023-07-31T06:39:12;14.18;90.27
65470;DHT22;52067;50.710;14.492;2023-07-31T06:41:38;13.93;90.31
65470;DHT22;52067;50.710;14.492;2023-07-31T06:44:03;14.00;90.47
65470;DHT22;52067;50.710;14.492;2023-07-31T06:46:29;14.05;90.35
65470;DHT22;52067;50.710;14.492;2023-07-31T06:48:54;13.94;91.04
65470;DHT22;52067;50.710;14.492;2023-07-31T06:51:20;13.93;90.81
65470;DHT22;52067;50.710;14.492;2023-07-31T06:53:45;14.20;90.47
65470;DHT22;52067;50.710;14.492;2023-07-31T06:56:10;14.48;90.11
65470;DHT22;52067;50.710;14.492;2023-07-31T06:58:36;14.55;89.08
65470;DHT22;52067;50.710;14.492;2023-07-31T07:01:01;14.38;89.24
65470;DHT22;52067;50.710;14.492;2023-07-31T07:03:26;14.58;89.01
65470;DHT22;52067;50.710;14.492;2023-07-31T07:05:52;14.72;88.60
65470;DHT22;52067;50.710;14.492;2023-07-31T07:08:17;14.81;88.41
65470;DHT22;52067;50.710;14.492;2023-07-31T07:10:42;14.62;89.13
65470;DHT22;52067;50.710;14.492;2023-07-31T07:13:08;14.72;88.45
65470;DHT22;52067;50.710;14.492;2023-07-31T07:15:33;14.46;88.94
65470;DHT22;52067;50.710;14.492;2023-07-31T07:17:58;14.29;89.98
65470;DHT22;52067;50.710;14.492;2023-07-31T07:20:23;14.53;89.78
65470;DHT22;52067;50.710;14.492;2023-07-31T07:22:49;14.72;89.46
65470;DHT22;52067;50.710;14.492;2023-07-31T07:25:14;14.69;89.41
65470;DHT22;52067;50.710;14.492;2023-07-31T07:27:40;14.91;88.58
65470;DHT22;52067;50.710;14.492;2023-07-31T07:30:05;14.97;87.77
65470;DHT22;52067;50.710;14.492;2023-07-31T07:32:30;14.86;88.19
65470;DHT22;52067;50.710;14.492;2023-07-31T07:34:56;15.00;88.11
65470;DHT22;52067;50.710;14.492;2023-07-31T07:37:21;15.10;87.76
65470;DHT22;52067;50.710;14.492;2023-07-31T07:39:47;15.03;87.49
65470;DHT22;52067;50.710;14.492;2023-07-31T07:42:12;15.16;87.19
65470;DHT22;52067;50.710;14.492;2023-07-31T07:44:37;15.06;87.55
65470;DHT22;52067;50.710;14.492;2023-07-31T07:47:03;15.10;87.62
65470;DHT22;52067;50.710;14.492;2023-07-31T07:49:28;15.07;87.57
65470;DHT22;52067;50.710;14.492;2023-07-31T07:51:53;14.75;88.81
65470;DHT22;52067;50.710;14.492;2023-07-31T07:54:18;14.94;88.85
65470;DHT22;52067;50.710;14.492;2023-07-31T07:56:46;14.60;89.92
65470;DHT22;52067;50.710;14.492;2023-07-31T07:59:11;14.62;90.42
65470;DHT22;52067;50.710;14.492;2023-07-31T08:01:36;14.84;89.95
65470;DHT22;52067;50.710;14.492;2023-07-31T08:04:01;14.73;89.60
65470;DHT22;52067;50.710;14.492;2023-07-31T08:06:27;14.84;90.05
65470;DHT22;52067;50.710;14.492;2023-07-31T08:08:52;14.83;90.14
65470;DHT22;52067;50.710;14.492;2023-07-31T08:11:18;14.75;89.78
65470;DHT22;52067;50.710;14.492;2023-07-31T08:13:43;14.76;90.04
65470;DHT22;52067;50.710;14.492;2023-07-31T08:16:08;14.76;90.41
65470;DHT22;52067;50.710;14.492;2023-07-31T08:18:35;14.87;89.54
65470;DHT22;52067;50.710;14.492;2023-07-31T08:21:01;15.16;88.86
65470;DHT22;52067;50.710;14.492;2023-07-31T08:23:26;15.11;90.04
65470;DHT22;52067;50.710;14.492;2023-07-31T08:25:52;15.27;89.07
65470;DHT22;52067;50.710;14.492;2023-07-31T08:28:17;15.08;89.24
65470;DHT22;52067;50.710;14.492;2023-07-31T08:30:42;15.14;90.21
65470;DHT22;52067;50.710;14.492;2023-07-31T08:33:08;15.28;89.23
65470;DHT22;52067;50.710;14.492;2023-07-31T08:35:33;15.31;89.40
65470;DHT22;52067;50.710;14.492;2023-07-31T08:37:59;15.54;88.72
65470;DHT22;52067;50.710;14.492;2023-07-31T08:40:24;15.63;88.85
65470;DHT22;52067;50.710;14.492;2023-07-31T08:42:50;15.30;88.89
65470;DHT22;52067;50.710;14.492;2023-07-31T08:45:16;15.45;89.49
65470;DHT22;52067;50.710;14.492;2023-07-31T08:47:45;15.55;89.78
65470;DHT22;52067;50.710;14.492;2023-07-31T08:50:15;15.85;89.71
65470;DHT22;52067;50.710;14.492;2023-07-31T08:52:40;15.92;89.03
65470;DHT22;52067;50.710;14.492;2023-07-31T08:55:06;16.14;87.87
65470;DHT22;52067;50.710;14.492;2023-07-31T08:57:31;16.61;85.53
65470;DHT22;52067;50.710;14.492;2023-07-31T08:59:57;16.69;84.68
65470;DHT22;52067;50.710;14.492;2023-07-31T09:02:22;16.58;85.25
65470;DHT22;52067;50.710;14.492;2023-07-31T09:04:49;16.91;83.18
65470;DHT22;52067;50.710;14.492;2023-07-31T09:07:14;16.75;85.75
65470;DHT22;52067;50.710;14.492;2023-07-31T09:09:40;17.19;84.44
65470;DHT22;52067;50.710;14.492;2023-07-31T09:12:05;17.59;82.07
65470;DHT22;52067;50.710;14.492;2023-07-31T09:14:31;17.59;81.85
65470;DHT22;52067;50.710;14.492;2023-07-31T09:16:57;17.60;83.79
65470;DHT22;52067;50.710;14.492;2023-07-31T09:19:29;17.71;81.98
65470;DHT22;52067;50.710;14.492;2023-07-31T09:21:54;18.04;81.99
65470;DHT22;52067;50.710;14.492;2023-07-31T09:24:26;18.33;79.47
65470;DHT22;52067;50.710;14.492;2023-07-31T09:26:53;18.48;78.28
65470;DHT22;52067;50.710;14.492;2023-07-31T09:29:19;18.19;77.76
65470;DHT22;52067;50.710;14.492;2023-07-31T09:31:44;18.39;77.61
65470;DHT22;52067;50.710;14.492;2023-07-31T09:34:10;18.31;78.00
65470;DHT22;52067;50.710;14.492;2023-07-31T09:36:45;18.09;78.87
65470;DHT22;52067;50.710;14.492;2023-07-31T09:39:10;18.08;77.85
65470;DHT22;52067;50.710;14.492;2023-07-31T09:41:37;18.32;79.40
65470;DHT22;52067;50.710;14.492;2023-07-31T09:44:03;18.69;79.53
65470;DHT22;52067;50.710;14.492;2023-07-31T09:46:28;18.87;78.46
65470;DHT22;52067;50.710;14.492;2023-07-31T09:49:02;19.24;74.75
65470;DHT22;52067;50.710;14.492;2023-07-31T09:51:28;19.32;75.17
65470;DHT22;52067;50.710;14.492;2023-07-31T09:53:56;19.28;74.32
65470;DHT22;52067;50.710;14.492;2023-07-31T09:56:21;19.41;75.68
65470;DHT22;52067;50.710;14.492;2023-07-31T09:58:47;19.41;74.00
65470;DHT22;52067;50.710;14.492;2023-07-31T10:01:13;19.63;71.88
65470;DHT22;52067;50.710;14.492;2023-07-31T10:03:38;19.62;72.00
65470;DHT22;52067;50.710;14.492;2023-07-31T10:06:04;19.77;72.09
65470;DHT22;52067;50.710;14.492;2023-07-31T10:08:30;19.75;71.82
65470;DHT22;52067;50.710;14.492;2023-07-31T10:11:00;19.47;73.48
65470;DHT22;52067;50.710;14.492;2023-07-31T10:13:25;19.55;72.12
65470;DHT22;52067;50.710;14.492;2023-07-31T10:15:52;20.13;73.44
65470;DHT22;52067;50.710;14.492;2023-07-31T10:18:21;20.21;70.46
65470;DHT22;52067;50.710;14.492;2023-07-31T10:20:46;20.31;71.40
65470;DHT22;52067;50.710;14.492;2023-07-31T10:23:12;20.74;67.74
65470;DHT22;52067;50.710;14.492;2023-07-31T10:25:38;20.91;69.45
65470;DHT22;52067;50.710;14.492;2023-07-31T10:28:03;21.37;69.12
65470;DHT22;52067;50.710;14.492;2023-07-31T10:30:29;20.76;67.86
65470;DHT22;52067;50.710;14.492;2023-07-31T10:32:55;20.41;71.95
65470;DHT22;52067;50.710;14.492;2023-07-31T10:35:21;20.95;69.00
65470;DHT22;52067;50.710;14.492;2023-07-31T10:37:47;20.79;69.70
65470;DHT22;52067;50.710;14.492;2023-07-31T10:40:15;20.98;68.86
65470;DHT22;52067;50.710;14.492;2023-07-31T10:42:50;20.23;69.16
65470;DHT22;52067;50.710;14.492;2023-07-31T10:45:33;20.10;72.80
65470;DHT22;52067;50.710;14.492;2023-07-31T10:48:01;20.40;70.15
65470;DHT22;52067;50.710;14.492;2023-07-31T10:50:27;20.74;69.66
65470;DHT22;52067;50.710;14.492;2023-07-31T10:52:56;20.81;68.56
65470;DHT22;52067;50.710;14.492;2023-07-31T10:55:32;20.43;67.34
65470;DHT22;52067;50.710;14.492;2023-07-31T10:58:08;20.21;69.87
65470;DHT22;52067;50.710;14.492;2023-07-31T11:00:34;20.34;69.76
65470;DHT22;52067;50.710;14.492;2023-07-31T11:05:46;20.51;70.88
65470;DHT22;52067;50.710;14.492;2023-07-31T11:08:12;21.43;68.56
65470;DHT22;52067;50.710;14.492;2023-07-31T11:10:37;22.32;61.93
65470;DHT22;52067;50.710;14.492;2023-07-31T11:13:06;23.51;60.78
65470;DHT22;52067;50.710;14.492;2023-07-31T11:15:31;23.41;56.50
65470;DHT22;52067;50.710;14.492;2023-07-31T11:17:56;23.75;59.49
65470;DHT22;52067;50.710;14.492;2023-07-31T11:20:26;23.67;60.66
65470;DHT22;52067;50.710;14.492;2023-07-31T11:22:51;23.28;58.55
65470;DHT22;52067;50.710;14.492;2023-07-31T11:25:17;22.76;62.93
65470;DHT22;52067;50.710;14.492;2023-07-31T11:27:43;22.35;64.10
65470;DHT22;52067;50.710;14.492;2023-07-31T11:30:09;22.01;63.14
65470;DHT22;52067;50.710;14.492;2023-07-31T11:32:36;21.53;64.39
65470;DHT22;52067;50.710;14.492;2023-07-31T11:35:02;21.34;66.22
65470;DHT22;52067;50.710;14.492;2023-07-31T11:37:40;20.89;68.15
65470;DHT22;52067;50.710;14.492;2023-07-31T11:40:06;21.36;66.00
65470;DHT22;52067;50.710;14.492;2023-07-31T11:42:31;21.51;65.67
65470;DHT22;52067;50.710;14.492;2023-07-31T11:44:56;21.80;64.64
65470;DHT22;52067;50.710;14.492;2023-07-31T11:47:22;21.70;65.76
65470;DHT22;52067;50.710;14.492;2023-07-31T11:49:47;21.82;64.33
65470;DHT22;52067;50.710;14.492;2023-07-31T11:52:13;21.47;64.33
65470;DHT22;52067;50.710;14.492;2023-07-31T11:54:39;21.71;65.19
65470;DHT22;52067;50.710;14.492;2023-07-31T11:57:04;21.68;63.92
65470;DHT22;52067;50.710;14.492;2023-07-31T11:59:30;21.90;64.93
65470;DHT22;52067;50.710;14.492;2023-07-31T12:01:55;22.22;62.82
65470;DHT22;52067;50.710;14.492;2023-07-31T12:04:21;22.67;63.36
65470;DHT22;52067;50.710;14.492;2023-07-31T12:06:46;23.03;61.10
65470;DHT22;52067;50.710;14.492;2023-07-31T12:09:13;23.46;57.13
65470;DHT22;52067;50.710;14.492;2023-07-31T12:11:43;24.34;58.69
65470;DHT22;52067;50.710;14.492;2023-07-31T12:14:17;24.95;54.60
65470;DHT22;52067;50.710;14.492;2023-07-31T12:16:44;24.72;54.49
65470;DHT22;52067;50.710;14.492;2023-07-31T12:19:09;23.99;58.02
65470;DHT22;52067;50.710;14.492;2023-07-31T12:21:34;23.73;59.43
65470;DHT22;52067;50.710;14.492;2023-07-31T12:23:59;23.28;58.38
65470;DHT22;52067;50.710;14.492;2023-07-31T12:26:25;22.98;60.78
65470;DHT22;52067;50.710;14.492;2023-07-31T12:28:58;23.00;59.24
65470;DHT22;52067;50.710;14.492;2023-07-31T12:31:24;23.14;60.38
65470;DHT22;52067;50.710;14.492;2023-07-31T12:33:52;23.21;60.71
65470;DHT22;52067;50.710;14.492;2023-07-31T12:36:20;23.17;60.04
65470;DHT22;52067;50.710;14.492;2023-07-31T12:38:45;23.19;62.29
65470;DHT22;52067;50.710;14.492;2023-07-31T12:41:11;22.86;61.21
65470;DHT22;52067;50.710;14.492;2023-07-31T12:43:37;22.78;62.16
65470;DHT22;52067;50.710;14.492;2023-07-31T12:46:03;22.56;62.45
65470;DHT22;52067;50.710;14.492;2023-07-31T12:48:29;22.06;62.84
65470;DHT22;52067;50.710;14.492;2023-07-31T12:50:54;21.80;63.58
65470;DHT22;52067;50.710;14.492;2023-07-31T12:53:19;21.53;63.52
65470;DHT22;52067;50.710;14.492;2023-07-31T12:55:45;21.36;66.56
65470;DHT22;52067;50.710;14.492;2023-07-31T12:58:10;21.40;65.93
65470;DHT22;52067;50.710;14.492;2023-07-31T13:00:35;21.63;64.65
65470;DHT22;52067;50.710;14.492;2023-07-31T13:03:01;23.37;60.87
65470;DHT22;52067;50.710;14.492;2023-07-31T13:05:27;23.63;58.98
65470;DHT22;52067;50.710;14.492;2023-07-31T13:07:52;24.58;54.12
65470;DHT22;52067;50.710;14.492;2023-07-31T13:10:17;26.05;56.09
65470;DHT22;52067;50.710;14.492;2023-07-31T13:12:43;26.59;49.39
65470;DHT22;52067;50.710;14.492;2023-07-31T13:15:08;25.85;52.34
65470;DHT22;52067;50.710;14.492;2023-07-31T13:17:33;25.33;52.89
65470;DHT22;52067;50.710;14.492;2023-07-31T13:19:59;25.05;50.89
65470;DHT22;52067;50.710;14.492;2023-07-31T13:22:24;24.68;54.28
65470;DHT22;52067;50.710;14.492;2023-07-31T13:24:50;24.37;53.84
65470;DHT22;52067;50.710;14.492;2023-07-31T13:27:15;24.31;54.06
65470;DHT22;52067;50.710;14.492;2023-07-31T13:29:46;23.37;58.37
65470;DHT22;52067;50.710;14.492;2023-07-31T13:32:11;23.51;54.92
65470;DHT22;52067;50.710;14.492;2023-07-31T13:34:36;23.49;56.93
65470;DHT22;52067;50.710;14.492;2023-07-31T13:37:02;23.79;54.56
65470;DHT22;52067;50.710;14.492;2023-07-31T13:39:27;23.83;54.67
65470;DHT22;52067;50.710;14.492;2023-07-31T13:41:53;23.38;54.92
65470;DHT22;52067;50.710;14.492;2023-07-31T13:44:18;23.55;55.95
65470;DHT22;52067;50.710;14.492;2023-07-31T13:46:43;23.79;54.38
65470;DHT22;52067;50.710;14.492;2023-07-31T13:49:09;24.14;55.76
65470;DHT22;52067;50.710;14.492;2023-07-31T13:51:34;24.64;52.05
65470;DHT22;52067;50.710;14.492;2023-07-31T13:53:59;24.47;52.50
65470;DHT22;52067;50.710;14.492;2023-07-31T13:56:24;24.61;52.92
65470;DHT22;52067;50.710;14.492;2023-07-31T13:58:50;25.40;51.93
65470;DHT22;52067;50.710;14.492;2023-07-31T14:01:15;26.40;48.71
65470;DHT22;52067;50.710;14.492;2023-07-31T14:03:40;26.73;48.57
65470;DHT22;52067;50.710;14.492;2023-07-31T14:06:06;26.61;46.51
65470;DHT22;52067;50.710;14.492;2023-07-31T14:08:31;26.02;49.22
65470;DHT22;52067;50.710;14.492;2023-07-31T14:10:56;25.54;50.73
65470;DHT22;52067;50.710;14.492;2023-07-31T14:13:22;24.96;52.05
65470;DHT22;52067;50.710;14.492;2023-07-31T14:15:47;24.35;52.34
65470;DHT22;52067;50.710;14.492;2023-07-31T14:18:13;24.13;54.44
65470;DHT22;52067;50.710;14.492;2023-07-31T14:20:38;24.17;52.92
65470;DHT22;52067;50.710;14.492;2023-07-31T14:23:03;24.10;53.80
65470;DHT22;52067;50.710;14.492;2023-07-31T14:25:29;24.25;52.74
65470;DHT22;52067;50.710;14.492;2023-07-31T14:27:54;24.30;52.80
65470;DHT22;52067;50.710;14.492;2023-07-31T14:30:19;24.06;54.10
65470;DHT22;52067;50.710;14.492;2023-07-31T14:32:45;23.99;55.03
65470;DHT22;52067;50.710;14.492;2023-07-31T14:35:10;23.72;55.42
65470;DHT22;52067;50.710;14.492;2023-07-31T14:37:36;23.58;54.48
65470;DHT22;52067;50.710;14.492;2023-07-31T14:40:02;23.51;55.78
65470;DHT22;52067;50.710;14.492;2023-07-31T14:42:27;23.93;52.49
65470;DHT22;52067;50.710;14.492;2023-07-31T14:44:52;24.12;51.77
65470;DHT22;52067;50.710;14.492;2023-07-31T14:47:17;24.10;54.84
65470;DHT22;52067;50.710;14.492;2023-07-31T14:49:43;24.07;52.89
65470;DHT22;52067;50.710;14.492;2023-07-31T14:52:08;24.13;52.95
65470;DHT22;52067;50.710;14.492;2023-07-31T14:54:33;24.30;51.70
65470;DHT22;52067;50.710;14.492;2023-07-31T14:56:58;24.10;54.01
65470;DHT22;52067;50.710;14.492;2023-07-31T14:59:24;23.70;53.08
65470;DHT22;52067;50.710;14.492;2023-07-31T15:01:49;23.72;53.16
65470;DHT22;52067;50.710;14.492;2023-07-31T15:04:14;23.73;52.52
65470;DHT22;52067;50.710;14.492;2023-07-31T15:06:40;24.17;52.27
65470;DHT22;52067;50.710;14.492;2023-07-31T15:09:07;25.43;49.45
65470;DHT22;52067;50.710;14.492;2023-07-31T15:11:32;26.08;46.13